createdAt,value
2019-02-25T00:02:29.071Z,7.60
2019-02-25T00:04:57.688Z,7.27
2019-02-25T00:07:26.311Z,8.20
2019-02-25T00:09:54.963Z,7.37
2019-02-25T00:12:23.590Z,6.33
2019-02-25T00:14:52.936Z,8.08
2019-02-25T00:17:21.574Z,6.55
2019-02-25T00:19:50.200Z,8.35
2019-02-25T00:22:18.907Z,8.17
2019-02-25T00:24:47.554Z,8.03
2019-02-25T00:27:16.159Z,7.58
2019-02-25T00:29:44.855Z,8.57
2019-02-25T00:32:13.499Z,8.47
2019-02-25T00:34:42.167Z,8.25
2019-02-25T00:37:10.807Z,6.57
2019-02-25T00:39:39.439Z,7.75
2019-02-25T00:42:08.135Z,7.75
2019-02-25T00:44:36.797Z,8.17
2019-02-25T00:47:05.422Z,7.37
2019-02-25T00:49:34.040Z,8.00
2019-02-25T00:52:02.835Z,7.70
2019-02-25T00:54:31.451Z,7.97
2019-02-25T00:57:00.079Z,8.17
2019-02-25T00:59:28.739Z,7.15
2019-02-25T01:01:58.323Z,8.80
2019-02-25T01:04:26.960Z,7.20
2019-02-25T01:06:55.595Z,7.27
2019-02-25T01:09:25.233Z,7.90
2019-02-25T01:11:53.823Z,8.00
2019-02-25T01:14:22.448Z,7.27
2019-02-25T01:16:51.078Z,7.40
2019-02-25T01:19:19.711Z,7.83
2019-02-25T01:21:48.343Z,6.90
2019-02-25T01:24:16.979Z,7.78
2019-02-25T01:26:45.607Z,8.17
2019-02-25T01:29:14.269Z,7.95
2019-02-25T01:31:42.891Z,6.03
2019-02-25T01:34:11.518Z,7.13
2019-02-25T01:36:40.179Z,7.77
2019-02-25T01:39:09.082Z,7.20
2019-02-25T01:41:37.771Z,7.73
2019-02-25T01:44:06.565Z,7.17
2019-02-25T01:46:36.148Z,8.10
2019-02-25T01:49:04.883Z,6.47
2019-02-25T01:51:33.507Z,7.37
2019-02-25T01:54:02.146Z,8.23
2019-02-25T01:56:31.311Z,7.42
2019-02-25T01:58:59.927Z,8.00
2019-02-25T02:01:28.643Z,6.93
2019-02-25T02:03:57.286Z,8.17
2019-02-25T02:06:25.925Z,7.47
2019-02-25T02:08:54.651Z,7.58
2019-02-25T02:11:23.282Z,7.37
2019-02-25T02:13:51.915Z,7.08
2019-02-25T02:16:20.611Z,8.07
2019-02-25T02:18:49.262Z,7.17
2019-02-25T02:21:17.899Z,5.80
2019-02-25T02:23:47.423Z,7.80
2019-02-25T02:26:16.047Z,6.87
2019-02-25T02:28:44.675Z,6.50
2019-02-25T02:31:13.323Z,7.20
2019-02-25T02:33:42.169Z,6.27
2019-02-25T02:36:11.834Z,6.77
2019-02-25T02:38:40.611Z,6.07
2019-02-25T02:41:09.246Z,6.47
2019-02-25T02:43:38.516Z,6.87
2019-02-25T02:46:12.027Z,6.20
2019-02-25T02:48:42.848Z,5.80
2019-02-25T02:51:11.476Z,6.37
2019-02-25T02:53:40.095Z,6.35
2019-02-25T02:56:08.721Z,6.63
2019-02-25T02:58:37.372Z,6.65
2019-02-25T03:01:06.066Z,6.08
2019-02-25T03:03:34.695Z,6.35
2019-02-25T03:06:03.360Z,6.78
2019-02-25T03:08:31.959Z,5.88
2019-02-25T03:11:00.594Z,8.40
2019-02-25T03:13:29.283Z,6.90
2019-02-25T03:15:57.906Z,6.40
2019-02-25T03:18:26.511Z,6.25
2019-02-25T03:20:55.248Z,6.75
2019-02-25T03:23:24.007Z,6.72
2019-02-25T03:25:52.711Z,5.58
2019-02-25T03:28:21.359Z,6.17
2019-02-25T03:30:50.058Z,7.08
2019-02-25T03:33:18.851Z,5.95
2019-02-25T03:35:47.443Z,6.85
2019-02-25T03:38:16.099Z,5.62
2019-02-25T03:40:44.790Z,5.73
2019-02-25T03:43:13.435Z,5.67
2019-02-25T03:45:42.154Z,6.63
2019-02-25T03:48:10.861Z,6.30
2019-02-25T03:50:39.561Z,6.37
2019-02-25T03:53:08.115Z,6.23
2019-02-25T03:55:36.774Z,6.43
2019-02-25T03:58:05.396Z,6.57
2019-02-25T04:00:34.111Z,6.03
2019-02-25T04:03:02.823Z,6.07
2019-02-25T04:05:31.947Z,4.12
2019-02-25T04:08:00.766Z,5.67
2019-02-25T04:10:29.413Z,6.30
2019-02-25T04:12:58.107Z,6.57
2019-02-25T04:15:39.450Z,6.28
2019-02-25T04:18:08.084Z,5.62
2019-02-25T04:20:36.703Z,5.77
2019-02-25T04:23:05.347Z,5.12
2019-02-25T04:25:33.956Z,6.53
2019-02-25T04:28:02.609Z,6.65
2019-02-25T04:30:31.311Z,5.80
2019-02-25T04:33:00.124Z,5.65
2019-02-25T04:35:28.748Z,5.87
2019-02-25T04:37:57.378Z,5.30
2019-02-25T04:40:26.013Z,6.22
2019-02-25T04:42:55.679Z,6.15
2019-02-25T04:45:24.295Z,6.10
2019-02-25T04:47:53.019Z,5.45
2019-02-25T04:50:22.704Z,5.90
2019-02-25T04:52:51.323Z,5.53
2019-02-25T04:55:20.014Z,5.80
2019-02-25T04:57:49.219Z,6.77
2019-02-25T05:00:17.846Z,6.53
2019-02-25T05:02:46.478Z,5.78
2019-02-25T05:05:15.090Z,6.58
2019-02-25T05:07:43.927Z,6.08
2019-02-25T05:10:12.886Z,5.72
2019-02-25T05:12:45.031Z,7.00
2019-02-25T05:15:15.535Z,5.78
2019-02-25T05:17:45.237Z,6.83
2019-02-25T05:20:14.254Z,5.87
2019-02-25T05:22:42.891Z,6.23
2019-02-25T05:25:11.521Z,5.43
2019-02-25T05:27:40.248Z,6.75
2019-02-25T05:30:09.397Z,6.08
2019-02-25T05:32:38.048Z,6.70
2019-02-25T05:35:07.238Z,6.65
2019-02-25T05:37:35.856Z,6.43
2019-02-25T05:40:05.076Z,6.93
2019-02-25T05:42:33.707Z,6.90
2019-02-25T05:45:02.342Z,6.40
2019-02-25T05:47:30.981Z,6.60
2019-02-25T05:49:59.615Z,6.50
2019-02-25T05:52:28.232Z,6.80
2019-02-25T05:54:56.859Z,6.83
2019-02-25T05:57:25.512Z,6.22
2019-02-25T05:59:54.127Z,6.70
2019-02-25T06:02:22.750Z,6.00
2019-02-25T06:04:51.396Z,7.10
2019-02-25T06:07:20.120Z,6.67
2019-02-25T06:09:48.739Z,6.67
2019-02-25T06:12:17.473Z,7.10
2019-02-25T06:14:46.100Z,6.50
2019-02-25T06:17:14.712Z,6.10
2019-02-25T06:19:43.365Z,6.20
2019-02-25T06:22:11.976Z,7.27
2019-02-25T06:24:40.603Z,6.95
2019-02-25T06:27:09.246Z,7.00
2019-02-25T06:29:37.893Z,6.90
2019-02-25T06:32:06.665Z,6.70
2019-02-25T06:34:35.287Z,6.97
2019-02-25T06:37:03.908Z,6.93
2019-02-25T06:39:32.544Z,7.35
2019-02-25T06:42:01.194Z,8.03
2019-02-25T06:44:29.827Z,8.00
2019-02-25T06:46:58.441Z,7.33
2019-02-25T06:49:27.775Z,8.17
2019-02-25T06:51:56.415Z,7.83
2019-02-25T06:54:25.043Z,7.62
2019-02-25T06:56:53.671Z,6.87
2019-02-25T06:59:22.296Z,7.27
2019-02-25T07:01:50.931Z,7.47
2019-02-25T07:04:43.240Z,7.35
2019-02-25T07:07:15.835Z,7.47
2019-02-25T07:09:55.247Z,6.97
2019-02-25T07:12:29.691Z,7.15
2019-02-25T07:15:05.659Z,7.03
2019-02-25T07:17:59.782Z,7.42
2019-02-25T07:20:42.702Z,8.53
2019-02-25T07:23:25.568Z,7.70
2019-02-25T07:26:11.718Z,8.00
2019-02-25T07:29:05.615Z,7.60
2019-02-25T07:32:05.687Z,8.78
2019-02-25T07:34:53.479Z,7.83
2019-02-25T07:37:40.228Z,7.97
2019-02-25T07:40:37.964Z,8.70
2019-02-25T07:43:31.792Z,8.63
2019-02-25T07:46:18.676Z,7.83
2019-02-25T07:49:13.279Z,8.43
2019-02-25T07:51:59.619Z,7.77
2019-02-25T07:54:46.591Z,8.05
2019-02-25T07:57:27.657Z,8.38
2019-02-25T08:00:16.184Z,7.13
2019-02-25T08:02:59.822Z,8.70
2019-02-25T08:05:38.259Z,8.50
2019-02-25T08:08:35.149Z,8.68
2019-02-25T08:11:25.951Z,8.08
2019-02-25T08:14:15.367Z,8.13
2019-02-25T08:16:58.878Z,8.20
2019-02-25T08:20:02.024Z,8.45
2019-02-25T08:22:40.799Z,7.85
2019-02-25T08:25:31.759Z,8.37
2019-02-25T08:28:13.910Z,7.97
2019-02-25T08:30:50.827Z,8.00
2019-02-25T08:33:38.625Z,7.97
2019-02-25T08:36:52.023Z,7.85
2019-02-25T08:39:38.699Z,8.10
2019-02-25T08:42:17.888Z,7.03
2019-02-25T08:44:54.191Z,7.45
2019-02-25T08:47:37.312Z,7.40
2019-02-25T08:50:08.459Z,8.08
2019-02-25T08:52:37.075Z,7.77
2019-02-25T08:55:06.551Z,7.58
2019-02-25T08:57:35.189Z,8.50
2019-02-25T09:00:04.879Z,8.48
2019-02-25T09:02:34.219Z,9.78
2019-02-25T09:05:02.906Z,9.53
2019-02-25T09:07:31.608Z,9.43
2019-02-25T09:10:00.587Z,8.63
2019-02-25T09:12:29.299Z,8.08
2019-02-25T09:14:58.151Z,7.42
2019-02-25T09:17:26.846Z,8.55
2019-02-25T09:19:56.064Z,8.13
2019-02-25T09:22:24.838Z,7.83
2019-02-25T09:24:53.912Z,7.55
2019-02-25T09:27:22.672Z,7.83
2019-02-25T09:29:52.279Z,7.83
2019-02-25T09:32:20.908Z,7.08
2019-02-25T09:34:49.620Z,6.93
2019-02-25T09:37:18.347Z,7.12
2019-02-25T09:39:46.978Z,7.60
2019-02-25T09:42:15.639Z,8.13
2019-02-25T09:44:44.252Z,6.25
2019-02-25T09:47:12.879Z,5.80
2019-02-25T09:49:41.548Z,5.67
2019-02-25T09:52:10.176Z,5.92
2019-02-25T09:54:38.811Z,6.28
2019-02-25T09:59:49.275Z,6.17
2019-02-25T10:02:17.898Z,7.10
2019-02-25T10:04:46.512Z,6.77
2019-02-25T10:07:15.179Z,6.97
2019-02-25T10:09:43.902Z,6.60
2019-02-25T10:12:12.591Z,6.50
2019-02-25T10:14:41.255Z,6.55
2019-02-25T10:17:09.892Z,6.37
2019-02-25T10:19:38.525Z,6.97
2019-02-25T10:22:07.244Z,6.87
2019-02-25T10:24:36.828Z,6.22
2019-02-25T10:27:05.463Z,6.32
2019-02-25T10:29:34.836Z,6.50
2019-02-25T10:32:04.826Z,6.70
2019-02-25T10:34:33.687Z,4.83
2019-02-25T10:37:02.345Z,5.65
2019-02-25T10:39:30.963Z,5.95
2019-02-25T10:42:00.064Z,5.90
2019-02-25T10:44:31.731Z,6.47
2019-02-25T10:47:00.096Z,7.10
2019-02-25T10:49:29.428Z,5.10
2019-02-25T10:51:58.971Z,5.60
2019-02-25T10:54:27.759Z,5.87
2019-02-25T10:56:57.929Z,5.75
2019-02-25T10:59:26.550Z,4.92
2019-02-25T11:01:55.186Z,5.40
2019-02-25T11:04:25.676Z,4.80
2019-02-25T11:06:54.060Z,5.00
2019-02-25T11:09:51.368Z,4.40
2019-02-25T11:12:21.651Z,4.78
2019-02-25T11:14:50.416Z,4.97
2019-02-25T11:17:20.425Z,4.78
2019-02-25T11:19:49.443Z,4.75
2019-02-25T11:22:18.067Z,4.65
2019-02-25T11:24:49.803Z,4.87
2019-02-25T11:27:18.123Z,5.10
2019-02-25T11:29:48.401Z,5.12
2019-02-25T11:32:18.911Z,3.80
2019-02-25T11:34:47.443Z,4.92
2019-02-25T11:37:16.797Z,5.22
2019-02-25T11:39:46.577Z,3.33
2019-02-25T11:42:17.418Z,4.10
2019-02-25T11:44:45.459Z,2.20
2019-02-25T11:47:15.883Z,3.72
2019-02-25T11:49:44.497Z,4.20
2019-02-25T11:52:13.147Z,1.32
2019-02-25T11:54:41.791Z,3.03
2019-02-25T11:57:10.479Z,3.25
2019-02-25T11:59:39.107Z,3.20
2019-02-25T12:02:08.443Z,3.60
2019-02-25T12:04:37.064Z,4.07
2019-02-25T12:07:05.770Z,4.08
2019-02-25T12:09:34.423Z,4.60
2019-02-25T12:12:03.055Z,0.88
2019-02-25T12:14:31.679Z,3.72
2019-02-25T12:17:00.340Z,3.43
2019-02-25T12:19:28.954Z,4.08
2019-02-25T12:21:57.775Z,3.58
2019-02-25T12:24:26.423Z,2.47
2019-02-25T12:26:55.041Z,3.45
2019-02-25T12:29:23.947Z,3.70
2019-02-25T12:31:52.600Z,3.40
2019-02-25T12:34:21.203Z,3.47
2019-02-25T12:36:49.811Z,2.75
2019-02-25T12:39:18.456Z,3.58
2019-02-25T12:41:47.755Z,3.00
2019-02-25T12:44:16.393Z,2.30
2019-02-25T12:46:45.063Z,2.72
2019-02-25T12:49:13.691Z,2.85
2019-02-25T12:51:42.316Z,3.10
2019-02-25T12:54:11.042Z,2.37
2019-02-25T12:56:39.677Z,3.80
2019-02-25T12:59:08.308Z,3.55
2019-02-25T13:01:36.931Z,3.12
2019-02-25T13:04:05.591Z,3.83
2019-02-25T13:06:34.271Z,3.90
2019-02-25T13:09:05.334Z,3.05
2019-02-25T13:11:35.582Z,3.70
2019-02-25T13:14:04.287Z,2.30
2019-02-25T13:16:32.948Z,3.77
2019-02-25T13:19:01.655Z,3.67
2019-02-25T13:21:30.283Z,3.50
2019-02-25T13:23:59.464Z,4.12
2019-02-25T13:26:29.837Z,3.42
2019-02-25T13:28:59.539Z,3.80
2019-02-25T13:31:28.143Z,3.00
2019-02-25T13:33:56.767Z,2.90
2019-02-25T13:36:25.407Z,3.00
2019-02-25T13:38:54.015Z,2.55
2019-02-25T13:41:22.633Z,2.58
2019-02-25T13:43:51.351Z,3.93
2019-02-25T13:46:20.243Z,3.02
2019-02-25T13:48:48.840Z,3.67
2019-02-25T13:51:17.479Z,3.13
2019-02-25T13:53:46.443Z,2.83
2019-02-25T13:56:15.057Z,1.50
2019-02-25T13:58:43.685Z,3.25
2019-02-25T14:01:13.964Z,3.92
2019-02-25T14:03:42.600Z,1.72
2019-02-25T14:06:11.339Z,2.72
2019-02-25T14:08:39.975Z,1.83
2019-02-25T14:11:08.589Z,3.02
2019-02-25T14:13:37.627Z,3.90
2019-02-25T14:16:06.347Z,3.72
2019-02-25T14:18:34.975Z,2.87
2019-02-25T14:21:03.878Z,4.42
2019-02-25T14:23:32.599Z,3.83
2019-02-25T14:26:01.300Z,3.30
2019-02-25T14:28:30.365Z,3.87
2019-02-25T14:30:59.076Z,3.70
2019-02-25T14:33:27.691Z,3.40
2019-02-25T14:35:56.607Z,2.95
2019-02-25T14:38:27.083Z,3.42
2019-02-25T14:40:56.780Z,3.83
2019-02-25T14:43:27.395Z,3.60
2019-02-25T14:45:56.809Z,4.30
2019-02-25T14:48:27.956Z,3.60
2019-02-25T14:50:56.391Z,3.90
2019-02-25T14:53:25.054Z,2.92
2019-02-25T14:55:56.011Z,3.40
2019-02-25T14:58:23.952Z,4.25
2019-02-25T15:00:52.577Z,4.30
2019-02-25T15:03:22.587Z,3.83
2019-02-25T15:05:53.229Z,4.08
2019-02-25T15:08:22.451Z,4.70
2019-02-25T15:10:52.125Z,3.87
2019-02-25T15:13:24.020Z,4.14
2019-02-25T15:15:52.220Z,3.72
2019-02-25T15:18:22.091Z,3.92
2019-02-25T15:20:51.105Z,4.67
2019-02-25T15:23:23.638Z,4.33
2019-02-25T15:25:50.263Z,5.40
2019-02-25T15:28:20.132Z,3.60
2019-02-25T15:30:49.210Z,4.25
2019-02-25T15:33:18.016Z,4.65
2019-02-25T15:35:46.639Z,4.60
2019-02-25T15:38:15.256Z,4.10
2019-02-25T15:40:44.496Z,4.90
2019-02-25T15:43:17.719Z,4.75
2019-02-25T15:45:44.751Z,5.15
2019-02-25T15:48:14.264Z,4.95
2019-02-25T15:50:46.109Z,5.10
2019-02-25T15:53:16.010Z,5.25
2019-02-25T15:55:44.541Z,5.30
2019-02-25T15:58:13.853Z,4.10
2019-02-25T16:00:42.974Z,4.70
2019-02-25T16:03:13.488Z,4.90
2019-02-25T16:05:41.939Z,5.80
2019-02-25T16:08:10.895Z,4.87
2019-02-25T16:10:40.077Z,4.90
2019-02-25T16:13:12.251Z,4.97
2019-02-25T16:15:39.787Z,5.08
2019-02-25T16:18:08.483Z,4.87
2019-02-25T16:20:37.099Z,5.42
2019-02-25T16:23:08.229Z,6.15
2019-02-25T16:25:36.471Z,4.47
2019-02-25T16:28:05.975Z,5.00
2019-02-25T16:30:36.064Z,5.10
2019-02-25T16:33:05.719Z,5.37
2019-02-25T16:35:36.816Z,5.20
2019-02-25T16:38:07.227Z,5.40
2019-02-25T16:40:36.217Z,5.25
2019-02-25T16:43:07.769Z,4.78
2019-02-25T16:45:39.556Z,4.75
2019-02-25T16:48:08.420Z,5.28
2019-02-25T16:50:37.664Z,5.15
2019-02-25T16:53:08.573Z,5.37
2019-02-25T16:55:40.498Z,5.47
2019-02-25T16:58:11.246Z,4.83
2019-02-25T17:00:39.443Z,5.17
2019-02-25T17:03:10.599Z,5.35
2019-02-25T17:05:42.112Z,4.85
2019-02-25T17:08:12.583Z,4.47
2019-02-25T17:10:41.945Z,4.85
2019-02-25T17:13:12.513Z,4.67
2019-02-25T17:15:40.879Z,4.80
2019-02-25T17:18:10.359Z,5.08
2019-02-25T17:20:38.981Z,4.70
2019-02-25T17:23:10.090Z,4.83
2019-02-25T17:25:38.930Z,5.20
2019-02-25T17:28:14.335Z,4.58
2019-02-25T17:30:40.534Z,4.25
2019-02-25T17:33:10.065Z,4.53
2019-02-25T17:35:39.571Z,5.22
2019-02-25T17:38:08.382Z,4.35
2019-02-25T17:40:37.016Z,4.47
2019-02-25T17:43:09.029Z,4.12
2019-02-25T17:45:38.992Z,4.25
2019-02-25T17:48:10.983Z,5.65
2019-02-25T17:50:41.561Z,4.70
2019-02-25T17:53:10.377Z,4.75
2019-02-25T17:55:39.283Z,4.40
2019-02-25T17:58:08.662Z,4.08
2019-02-25T18:00:41.817Z,3.65
2019-02-25T18:03:10.080Z,4.15
2019-02-25T18:05:40.757Z,4.45
2019-02-25T18:08:13.253Z,4.00
2019-02-25T18:10:43.188Z,3.58
2019-02-25T18:13:12.142Z,3.30
2019-02-25T18:15:41.917Z,4.05
2019-02-25T18:18:12.550Z,4.15
2019-02-25T18:20:41.011Z,3.70
2019-02-25T18:23:09.896Z,3.80
2019-02-25T18:25:40.130Z,3.60
2019-02-25T18:28:10.597Z,3.62
2019-02-25T18:30:39.327Z,4.12
2019-02-25T18:33:08.231Z,4.03
2019-02-25T18:35:40.623Z,4.10
2019-02-25T18:38:09.491Z,3.55
2019-02-25T18:40:38.712Z,4.15
2019-02-25T18:43:07.823Z,4.08
2019-02-25T18:45:38.437Z,4.17
2019-02-25T18:48:07.551Z,4.58
2019-02-25T18:50:36.322Z,4.50
2019-02-25T18:53:05.173Z,4.42
2019-02-25T18:55:34.383Z,4.85
2019-02-25T18:58:05.127Z,4.67
2019-02-25T19:00:36.266Z,5.28
2019-02-25T19:03:05.363Z,5.00
2019-02-25T19:05:34.971Z,4.53
2019-02-25T19:08:05.263Z,5.33
2019-02-25T19:10:33.867Z,5.10
2019-02-25T19:13:02.944Z,4.70
2019-02-25T19:15:31.695Z,5.17
2019-02-25T19:18:00.324Z,5.40
2019-02-25T19:20:29.118Z,5.50
2019-02-25T19:23:00.408Z,6.30
2019-02-25T19:25:28.100Z,7.05
2019-02-25T19:27:58.718Z,5.70
2019-02-25T19:30:29.386Z,6.20
2019-02-25T19:32:57.847Z,5.78
2019-02-25T19:35:28.696Z,6.20
2019-02-25T19:37:57.053Z,5.42
2019-02-25T19:40:25.687Z,5.80
2019-02-25T19:42:56.849Z,6.17
2019-02-25T19:45:25.325Z,6.10
2019-02-25T19:47:55.975Z,6.05
2019-02-25T19:50:25.970Z,6.80
2019-02-25T19:52:54.964Z,6.37
2019-02-25T19:55:23.657Z,7.28
2019-02-25T19:57:52.395Z,6.34
2019-02-25T20:00:33.173Z,6.62
2019-02-25T20:03:05.626Z,6.83
2019-02-25T20:05:33.210Z,7.28
2019-02-25T20:08:01.980Z,8.05
2019-02-25T20:10:31.193Z,7.40
2019-02-25T20:12:59.919Z,6.00
2019-02-25T20:15:28.617Z,6.65
2019-02-25T20:17:57.267Z,6.35
2019-02-25T20:20:31.919Z,6.90
2019-02-25T20:23:01.703Z,7.83
2019-02-25T20:25:31.105Z,7.70
2019-02-25T20:28:00.312Z,6.75
2019-02-25T20:30:30.574Z,6.60
2019-02-25T20:33:00.790Z,6.60
2019-02-25T20:35:31.311Z,7.30
2019-02-25T20:38:00.563Z,7.33
2019-02-25T20:40:31.043Z,7.22
2019-02-25T20:43:02.849Z,6.35
2019-02-25T20:45:32.651Z,7.05
2019-02-25T20:48:02.505Z,7.20
2019-02-25T20:50:31.140Z,8.35
2019-02-25T20:53:04.934Z,8.75
2019-02-25T20:55:31.643Z,8.63
2019-02-25T20:58:00.341Z,9.75
2019-02-25T21:00:29.099Z,8.58
2019-02-25T21:02:57.780Z,9.25
2019-02-25T21:05:27.353Z,11.25
2019-02-25T21:07:57.937Z,9.83
2019-02-25T21:10:29.310Z,8.40
2019-02-25T21:12:57.703Z,8.73
2019-02-25T21:15:27.001Z,8.35
2019-02-25T21:17:58.966Z,8.23
2019-02-25T21:20:28.673Z,8.50
2019-02-25T21:22:57.829Z,8.13
2019-02-25T21:25:28.642Z,7.20
2019-02-25T21:27:59.190Z,8.38
2019-02-25T21:30:27.215Z,8.05
2019-02-25T21:32:57.055Z,8.50
2019-02-25T21:35:28.276Z,9.15
2019-02-25T21:37:56.425Z,7.37
2019-02-25T21:40:27.101Z,6.87
2019-02-25T21:42:56.696Z,7.25
2019-02-25T21:45:27.538Z,7.53
2019-02-25T21:47:56.547Z,7.30
2019-02-25T21:50:28.312Z,6.92
2019-02-25T21:52:56.401Z,7.25
2019-02-25T21:55:26.202Z,6.37
2019-02-25T21:57:57.219Z,6.63
2019-02-25T22:00:27.084Z,5.97
2019-02-25T22:02:56.060Z,6.93
2019-02-25T22:05:24.690Z,7.13
2019-02-25T22:07:55.373Z,7.00
2019-02-25T22:10:23.727Z,6.75
2019-02-25T22:12:52.347Z,7.08
2019-02-25T22:15:22.345Z,7.47
2019-02-25T22:17:53.157Z,7.23
2019-02-25T22:20:22.510Z,6.50
2019-02-25T22:22:54.571Z,6.47
2019-02-25T22:25:22.357Z,6.87
2019-02-25T22:27:50.983Z,7.87
2019-02-25T22:30:19.603Z,7.63
2019-02-25T22:32:48.635Z,6.80
2019-02-25T22:35:17.343Z,7.25
2019-02-25T22:37:49.363Z,7.93
2019-02-25T22:40:17.386Z,8.08
2019-02-25T22:42:48.050Z,8.65
2019-02-25T22:45:18.556Z,7.87
2019-02-25T22:47:46.680Z,7.30
2019-02-25T22:50:15.451Z,7.73
2019-02-25T22:52:44.015Z,7.87
2019-02-25T22:55:15.105Z,7.70
2019-02-25T22:57:43.936Z,8.17
2019-02-25T23:00:16.959Z,7.37
2019-02-25T23:02:47.928Z,8.27
2019-02-25T23:05:18.942Z,7.73
2019-02-25T23:07:48.563Z,7.27
2019-02-25T23:10:20.108Z,7.37
2019-02-25T23:12:49.027Z,8.10
2019-02-25T23:15:18.294Z,8.53
2019-02-25T23:17:47.916Z,7.30
2019-02-25T23:20:16.809Z,8.45
2019-02-25T23:22:45.443Z,8.33
2019-02-25T23:25:14.062Z,7.73
2019-02-25T23:27:42.671Z,7.47
2019-02-25T23:30:11.397Z,7.43
2019-02-25T23:32:40.088Z,7.70
2019-02-25T23:35:11.474Z,7.10
2019-02-25T23:37:39.048Z,8.10
2019-02-25T23:40:09.517Z,7.17
2019-02-25T23:42:39.658Z,7.53
2019-02-25T23:45:10.624Z,8.53
2019-02-25T23:47:39.968Z,8.03
2019-02-25T23:50:10.535Z,8.57
2019-02-25T23:52:38.925Z,7.47
2019-02-25T23:55:08.103Z,8.00
2019-02-25T23:57:36.743Z,8.43
